createdAt,value
2023-03-02T00:01:53.804Z,100890.78
2023-03-02T00:04:24.764Z,100891.34
2023-03-02T00:06:52.334Z,100894.75
2023-03-02T00:09:18.805Z,100889.97
2023-03-02T00:11:45.694Z,100897.00
2023-03-02T00:14:12.202Z,100895.91
2023-03-02T00:16:40.140Z,100893.38
2023-03-02T00:19:06.547Z,100899.81
2023-03-02T00:21:32.886Z,100899.81
2023-03-02T00:23:59.409Z,100899.53
2023-03-02T00:26:25.734Z,100892.81
2023-03-02T00:28:52.112Z,100896.44
2023-03-02T00:31:19.394Z,100899.25
2023-03-02T00:33:45.824Z,100898.97
2023-03-02T00:36:18.953Z,100899.81
2023-03-02T00:38:48.114Z,100892.81
2023-03-02T00:41:15.737Z,100894.78
2023-03-02T00:43:42.897Z,100890.28
2023-03-02T00:46:15.172Z,100885.22
2023-03-02T00:48:41.837Z,100875.97
2023-03-02T00:51:09.271Z,100879.63
2023-03-02T00:53:36.407Z,100868.66
2023-03-02T00:56:03.654Z,100865.56
2023-03-02T00:58:31.206Z,100867.25
2023-03-02T01:00:58.657Z,100866.13
2023-03-02T01:03:25.482Z,100870.66
2023-03-02T01:05:55.218Z,100855.19
2023-03-02T01:08:25.169Z,100868.97
2023-03-02T01:10:54.320Z,100859.69
2023-03-02T01:13:21.235Z,100860.50
2023-03-02T01:15:47.927Z,100861.31
2023-03-02T01:18:14.693Z,100854.59
2023-03-02T01:20:41.062Z,100852.38
2023-03-02T01:23:07.538Z,100850.41
2023-03-02T01:25:33.928Z,100850.13
2023-03-02T01:28:00.425Z,100853.50
2023-03-02T01:30:26.843Z,100845.69
2023-03-02T01:32:53.187Z,100838.09
2023-03-02T01:35:19.568Z,100832.50
2023-03-02T01:37:45.989Z,100837.25
2023-03-02T01:43:53.061Z,100830.25
2023-03-02T01:46:24.599Z,100829.13
2023-03-02T01:48:59.403Z,100829.44
2023-03-02T01:51:27.933Z,100831.41
2023-03-02T01:53:56.970Z,100830.56
2023-03-02T01:56:27.177Z,100831.97
2023-03-02T01:59:01.871Z,100827.47
2023-03-02T02:01:30.360Z,100817.94
2023-03-02T02:03:57.136Z,100820.47
2023-03-02T02:06:26.400Z,100820.44
2023-03-02T02:08:54.158Z,100821.28
2023-03-02T02:11:20.546Z,100816.00
2023-03-02T02:13:46.952Z,100813.44
2023-03-02T02:16:13.757Z,100808.97
2023-03-02T02:18:41.203Z,100815.13
2023-03-02T02:21:08.652Z,100810.06
2023-03-02T02:24:02.296Z,100813.16
2023-03-02T02:26:44.909Z,100807.03
2023-03-02T02:29:32.996Z,100803.66
2023-03-02T02:32:03.851Z,100808.69
2023-03-02T02:34:39.586Z,100803.09
2023-03-02T02:37:09.465Z,100800.81
2023-03-02T02:39:39.454Z,100801.41
2023-03-02T02:42:10.448Z,100802.81
2023-03-02T02:44:37.022Z,100787.09
2023-03-02T02:47:03.453Z,100782.63
2023-03-02T02:49:34.202Z,100791.84
2023-03-02T02:52:01.378Z,100789.06
2023-03-02T02:54:29.270Z,100795.50
2023-03-02T02:56:56.837Z,100790.41
2023-03-02T02:59:33.321Z,100780.88
2023-03-02T03:01:59.920Z,100783.19
2023-03-02T03:04:29.209Z,100782.91
2023-03-02T03:06:58.665Z,100779.22
2023-03-02T03:09:26.705Z,100779.50
2023-03-02T03:11:58.738Z,100777.56
2023-03-02T03:14:29.558Z,100772.50
2023-03-02T03:16:56.282Z,100776.44
2023-03-02T03:19:29.057Z,100769.47
2023-03-02T03:21:58.371Z,100768.31
2023-03-02T03:24:25.838Z,100768.59
2023-03-02T03:26:54.195Z,100769.13
2023-03-02T03:29:24.049Z,100756.56
2023-03-02T03:31:51.482Z,100762.75
2023-03-02T03:34:17.817Z,100763.84
2023-03-02T03:36:44.253Z,100763.56
2023-03-02T03:39:12.239Z,100749.56
2023-03-02T03:41:39.151Z,100756.31
2023-03-02T03:44:05.842Z,100758.56
2023-03-02T03:46:32.809Z,100760.50
2023-03-02T03:48:59.591Z,100759.38
2023-03-02T03:51:26.545Z,100764.16
2023-03-02T03:54:02.133Z,100767.53
2023-03-02T03:56:30.992Z,100775.38
2023-03-02T03:59:06.429Z,100766.97
2023-03-02T04:01:54.485Z,100774.50
2023-03-02T04:04:24.179Z,100779.59
2023-03-02T04:06:51.324Z,100776.75
2023-03-02T04:09:20.658Z,100773.13
2023-03-02T04:11:49.768Z,100780.41
2023-03-02T04:14:16.762Z,100777.59
2023-03-02T04:16:43.547Z,100773.66
2023-03-02T04:19:11.257Z,100780.41
2023-03-02T04:21:39.390Z,100777.59
2023-03-02T04:24:06.586Z,100776.47
2023-03-02T04:26:33.829Z,100781.53
2023-03-02T04:29:00.625Z,100781.22
2023-03-02T04:31:27.022Z,100783.47
2023-03-02T04:33:53.523Z,100787.34
2023-03-02T04:36:20.060Z,100784.84
2023-03-02T04:38:47.313Z,100781.22
2023-03-02T04:41:13.726Z,100794.38
2023-03-02T04:43:40.105Z,100779.22
2023-03-02T04:46:06.574Z,100787.09
2023-03-02T04:48:33.401Z,100787.63
2023-03-02T04:50:59.755Z,100784.56
2023-03-02T04:53:26.159Z,100786.78
2023-03-02T04:55:52.541Z,100781.44
2023-03-02T04:58:19.025Z,100785.94
2023-03-02T05:00:45.457Z,100784.81
2023-03-02T05:03:12.620Z,100794.84
2023-03-02T05:05:39.285Z,100795.19
2023-03-02T05:08:05.699Z,100792.31
2023-03-02T05:10:32.215Z,100788.72
2023-03-02T05:12:58.615Z,100790.63
2023-03-02T05:15:27.746Z,100790.06
2023-03-02T05:17:54.343Z,100788.94
2023-03-02T05:20:21.278Z,100794.78
2023-03-02T05:22:47.825Z,100789.47
2023-03-02T05:25:14.605Z,100790.00
2023-03-02T05:27:41.062Z,100786.91
2023-03-02T05:30:08.288Z,100786.38
2023-03-02T05:32:37.269Z,100791.94
2023-03-02T05:35:03.832Z,100790.28
2023-03-02T05:37:30.221Z,100791.94
2023-03-02T05:39:56.812Z,100791.66
2023-03-02T05:42:23.185Z,100802.84
2023-03-02T05:44:49.736Z,100791.34
2023-03-02T05:47:16.216Z,100798.41
2023-03-02T05:49:42.686Z,100798.13
2023-03-02T05:52:09.083Z,100797.00
2023-03-02T05:54:35.452Z,100805.38
2023-03-02T05:57:01.990Z,100802.88
2023-03-02T05:59:28.375Z,100802.84
2023-03-02T06:01:58.620Z,100803.69
2023-03-02T06:04:25.709Z,100804.56
2023-03-02T06:06:52.307Z,100814.38
2023-03-02T06:09:18.738Z,100804.31
2023-03-02T06:11:45.170Z,100808.78
2023-03-02T06:14:11.625Z,100807.09
2023-03-02T06:16:39.368Z,100807.09
2023-03-02T06:19:08.824Z,100809.09
2023-03-02T06:21:35.258Z,100808.78
2023-03-02T06:24:01.800Z,100809.06
2023-03-02T06:26:28.207Z,100812.16
2023-03-02T06:28:54.654Z,100817.19
2023-03-02T06:31:21.772Z,100822.53
2023-03-02T06:33:48.186Z,100824.78
2023-03-02T06:36:16.867Z,100821.97
2023-03-02T06:38:43.665Z,100819.47
2023-03-02T06:41:10.133Z,100814.97
2023-03-02T06:43:36.616Z,100816.97
2023-03-02T06:46:03.092Z,100817.25
2023-03-02T06:48:29.516Z,100815.31
2023-03-02T06:50:55.963Z,100821.22
2023-03-02T06:53:23.401Z,100809.78
2023-03-02T06:55:50.526Z,100813.44
2023-03-02T06:58:17.213Z,100812.88
2023-03-02T07:00:43.801Z,100816.53
2023-03-02T07:03:10.209Z,100809.81
2023-03-02T07:05:36.891Z,100814.31
2023-03-02T07:08:03.639Z,100817.09
2023-03-02T07:10:30.217Z,100810.06
2023-03-02T07:12:56.690Z,100818.47
2023-03-02T07:15:23.038Z,100822.97
2023-03-02T07:17:49.418Z,100811.97
2023-03-02T07:20:17.684Z,100815.91
2023-03-02T07:22:44.608Z,100809.38
2023-03-02T07:25:11.875Z,100821.44
2023-03-02T07:27:38.718Z,100819.41
2023-03-02T07:30:06.284Z,100818.34
2023-03-02T07:32:32.823Z,100809.84
2023-03-02T07:34:59.378Z,100816.50
2023-03-02T07:37:26.111Z,100807.47
2023-03-02T07:39:52.498Z,100810.78
2023-03-02T07:42:18.953Z,100812.47
2023-03-02T07:44:45.417Z,100810.75
2023-03-02T07:47:11.997Z,100818.53
2023-03-02T07:49:38.663Z,100817.41
2023-03-02T07:52:05.606Z,100814.28
2023-03-02T07:54:32.045Z,100819.03
2023-03-02T07:56:58.486Z,100814.44
2023-03-02T07:59:24.882Z,100814.41
2023-03-02T08:01:51.480Z,100808.25
2023-03-02T08:04:18.050Z,100812.34
2023-03-02T08:06:44.404Z,100808.97
2023-03-02T08:09:10.975Z,100803.22
2023-03-02T08:11:37.572Z,100800.91
2023-03-02T08:14:04.051Z,100803.19
2023-03-02T08:16:30.830Z,100803.69
2023-03-02T08:18:59.756Z,100801.34
2023-03-02T08:21:27.211Z,100805.13
2023-03-02T08:23:53.805Z,100799.63
2023-03-02T08:26:20.557Z,100803.22
2023-03-02T08:28:47.234Z,100799.69
2023-03-02T08:31:14.125Z,100796.19
2023-03-02T08:33:40.655Z,100787.63
2023-03-02T08:36:28.374Z,100794.28
2023-03-02T08:38:54.728Z,100794.09
2023-03-02T08:41:22.794Z,100793.53
2023-03-02T08:43:49.442Z,100784.34
2023-03-02T08:46:18.927Z,100797.81
2023-03-02T08:48:45.578Z,100790.13
2023-03-02T08:51:15.018Z,100782.59
2023-03-02T08:53:43.422Z,100789.81
2023-03-02T08:56:30.211Z,100788.34
2023-03-02T08:58:59.598Z,100774.41
2023-03-02T09:01:32.157Z,100777.59
2023-03-02T09:04:00.526Z,100786.25
2023-03-02T09:06:28.422Z,100782.41
2023-03-02T09:08:54.815Z,100778.97
2023-03-02T09:11:21.221Z,100776.28
2023-03-02T09:13:47.562Z,100773.78
2023-03-02T09:16:14.140Z,100773.78
2023-03-02T09:18:40.853Z,100780.06
2023-03-02T09:21:07.328Z,100771.91
2023-03-02T09:23:35.370Z,100775.56
2023-03-02T09:26:01.762Z,100772.19
2023-03-02T09:28:28.480Z,100772.50
2023-03-02T09:31:00.179Z,100767.91
2023-03-02T09:33:27.282Z,100765.09
2023-03-02T09:35:53.668Z,100770.59
2023-03-02T09:38:20.148Z,100775.78
2023-03-02T09:40:49.766Z,100774.47
2023-03-02T09:43:33.978Z,100772.75
2023-03-02T09:46:14.407Z,100781.00
2023-03-02T09:49:04.189Z,100767.19
2023-03-02T09:51:43.668Z,100770.50
2023-03-02T09:54:13.582Z,100767.22
2023-03-02T09:56:44.253Z,100770.63
2023-03-02T09:59:21.807Z,100774.03
2023-03-02T10:02:01.344Z,100772.03
2023-03-02T10:04:31.172Z,100763.63
2023-03-02T10:07:01.923Z,100770.50
2023-03-02T10:09:28.708Z,100759.88
2023-03-02T10:12:28.583Z,100766.25
2023-03-02T10:14:57.190Z,100751.97
2023-03-02T10:17:39.496Z,100757.84
2023-03-02T10:20:15.369Z,100754.63
2023-03-02T10:22:48.462Z,100755.56
2023-03-02T10:25:30.984Z,100757.97
2023-03-02T10:28:19.336Z,100753.31
2023-03-02T10:30:49.937Z,100751.91
2023-03-02T10:33:18.814Z,100750.91
2023-03-02T10:35:48.409Z,100743.09
2023-03-02T10:38:25.314Z,100751.91
2023-03-02T10:40:59.672Z,100745.88
2023-03-02T10:43:33.581Z,100741.72
2023-03-02T10:46:02.083Z,100746.69
2023-03-02T10:48:29.118Z,100739.22
2023-03-02T10:50:58.162Z,100736.72
2023-03-02T10:53:24.794Z,100732.72
2023-03-02T10:55:53.103Z,100739.72
2023-03-02T10:58:19.981Z,100734.56
2023-03-02T11:00:59.952Z,100730.53
2023-03-02T11:03:27.135Z,100730.38
2023-03-02T11:05:53.577Z,100723.50
2023-03-02T11:08:26.316Z,100726.03
2023-03-02T11:11:00.836Z,100728.63
2023-03-02T11:13:30.610Z,100716.66
2023-03-02T11:16:02.169Z,100709.47
2023-03-02T11:18:37.188Z,100706.13
2023-03-02T11:21:06.389Z,100704.47
2023-03-02T11:23:38.664Z,100708.44
2023-03-02T11:26:09.382Z,100704.88
2023-03-02T11:28:41.834Z,100705.25
2023-03-02T11:31:15.766Z,100692.00
2023-03-02T11:33:52.369Z,100698.09
2023-03-02T11:36:21.433Z,100696.16
2023-03-02T11:38:51.468Z,100689.34
2023-03-02T11:41:38.176Z,100688.00
2023-03-02T11:44:16.970Z,100687.94
2023-03-02T11:46:48.474Z,100675.41
2023-03-02T11:49:21.346Z,100676.16
2023-03-02T11:51:58.296Z,100663.84
2023-03-02T11:54:45.818Z,100671.25
2023-03-02T11:57:23.884Z,100670.03
2023-03-02T11:59:50.657Z,100661.66
2023-03-02T12:02:18.025Z,100663.25
2023-03-02T12:04:44.552Z,100658.75
2023-03-02T12:07:23.568Z,100646.59
2023-03-02T12:10:21.744Z,100651.59
2023-03-02T12:13:00.778Z,100640.81
2023-03-02T12:15:35.552Z,100641.22
2023-03-02T12:18:02.049Z,100644.91
2023-03-02T12:20:29.905Z,100640.50
2023-03-02T12:23:07.991Z,100636.66
2023-03-02T12:25:43.097Z,100636.34
2023-03-02T12:28:39.145Z,100630.34
2023-03-02T12:31:14.717Z,100630.78
2023-03-02T12:33:46.923Z,100634.25
2023-03-02T12:36:19.099Z,100624.63
2023-03-02T12:38:54.416Z,100635.47
2023-03-02T12:41:42.328Z,100621.56
2023-03-02T12:44:38.590Z,100616.19
2023-03-02T12:47:12.616Z,100607.78
2023-03-02T12:49:51.427Z,100609.19
2023-03-02T12:52:22.778Z,100617.66
2023-03-02T12:54:59.783Z,100601.47
2023-03-02T12:57:26.446Z,100600.72
2023-03-02T12:59:58.213Z,100589.06
2023-03-02T13:02:28.587Z,100585.75
2023-03-02T13:05:03.797Z,100582.19
2023-03-02T13:07:35.881Z,100583.63
2023-03-02T13:10:06.893Z,100574.94
2023-03-02T13:12:34.415Z,100585.44
2023-03-02T13:15:01.093Z,100573.41
2023-03-02T13:17:31.162Z,100574.81
2023-03-02T13:20:02.060Z,100568.09
2023-03-02T13:22:28.755Z,100568.28
2023-03-02T13:24:58.991Z,100569.97
2023-03-02T13:27:26.174Z,100567.59
2023-03-02T13:29:55.387Z,100567.56
2023-03-02T13:32:27.150Z,100560.28
2023-03-02T13:34:55.989Z,100555.75
2023-03-02T13:37:34.626Z,100559.59
2023-03-02T13:40:02.579Z,100558.28
2023-03-02T13:42:36.195Z,100557.78
2023-03-02T13:45:19.562Z,100556.44
2023-03-02T13:47:45.903Z,100554.94
2023-03-02T13:50:38.754Z,100544.25
2023-03-02T13:53:06.983Z,100541.84
2023-03-02T13:55:33.836Z,100541.31
2023-03-02T13:58:00.530Z,100535.88
2023-03-02T14:00:32.615Z,100540.25
2023-03-02T14:02:59.265Z,100538.34
2023-03-02T14:05:32.769Z,100542.25
2023-03-02T14:08:00.395Z,100544.63
2023-03-02T14:10:26.952Z,100531.78
2023-03-02T14:13:05.425Z,100533.28
2023-03-02T14:15:32.652Z,100528.25
2023-03-02T14:18:00.157Z,100541.78
2023-03-02T14:20:26.524Z,100527.41
2023-03-02T14:22:52.950Z,100532.34
2023-03-02T14:25:20.467Z,100531.03
2023-03-02T14:27:47.459Z,100524.66
2023-03-02T14:30:19.607Z,100531.69
2023-03-02T14:32:46.527Z,100535.50
2023-03-02T14:35:14.395Z,100528.75
2023-03-02T14:37:44.770Z,100534.63
2023-03-02T14:40:23.493Z,100529.84
2023-03-02T14:42:51.748Z,100519.47
2023-03-02T14:45:18.337Z,100526.06
2023-03-02T14:47:44.895Z,100533.41
2023-03-02T14:50:11.886Z,100521.50
2023-03-02T14:52:44.285Z,100529.25
2023-03-02T14:55:20.470Z,100520.69
2023-03-02T14:57:48.112Z,100519.38
2023-03-02T15:00:15.441Z,100518.13
2023-03-02T15:02:42.073Z,100524.97
2023-03-02T15:05:09.165Z,100516.97
2023-03-02T15:07:37.089Z,100523.59
2023-03-02T15:10:03.714Z,100527.25
2023-03-02T15:12:30.058Z,100521.47
2023-03-02T15:14:56.448Z,100517.44
2023-03-02T15:17:23.089Z,100525.63
2023-03-02T15:19:49.511Z,100515.34
2023-03-02T15:22:16.288Z,100528.78
2023-03-02T15:24:42.678Z,100530.03
2023-03-02T15:27:09.132Z,100529.63
2023-03-02T15:29:35.546Z,100523.41
2023-03-02T15:32:02.242Z,100525.25
2023-03-02T15:34:28.958Z,100534.47
2023-03-02T15:36:55.444Z,100534.09
2023-03-02T15:39:21.876Z,100536.94
2023-03-02T15:41:48.347Z,100533.03
2023-03-02T15:44:21.824Z,100538.41
2023-03-02T15:46:49.560Z,100535.75
2023-03-02T15:49:16.118Z,100538.16
2023-03-02T15:51:42.501Z,100527.72
2023-03-02T15:54:10.822Z,100536.22
2023-03-02T15:56:43.936Z,100535.28
2023-03-02T15:59:11.272Z,100544.88
2023-03-02T16:01:37.793Z,100541.53
2023-03-02T16:04:04.287Z,100546.63
2023-03-02T16:06:30.692Z,100541.97
2023-03-02T16:08:57.006Z,100542.09
2023-03-02T16:11:23.499Z,100548.91
2023-03-02T16:13:51.695Z,100549.09
2023-03-02T16:16:19.398Z,100551.84
2023-03-02T16:18:52.630Z,100556.47
2023-03-02T16:21:18.937Z,100556.88
2023-03-02T16:23:45.673Z,100552.47
2023-03-02T16:26:14.786Z,100554.38
2023-03-02T16:28:41.482Z,100565.13
2023-03-02T16:31:13.610Z,100556.66
2023-03-02T16:33:40.807Z,100567.41
2023-03-02T16:36:08.303Z,100571.31
2023-03-02T16:38:36.923Z,100565.69
2023-03-02T16:41:23.554Z,100569.91
2023-03-02T16:43:55.743Z,100568.25
2023-03-02T16:46:23.397Z,100567.94
2023-03-02T16:48:49.997Z,100580.72
2023-03-02T16:51:17.388Z,100582.44
2023-03-02T16:53:44.142Z,100577.16
2023-03-02T16:56:11.699Z,100579.50
2023-03-02T16:58:39.640Z,100580.34
2023-03-02T17:01:07.528Z,100582.91
2023-03-02T17:03:34.589Z,100592.44
2023-03-02T17:06:01.427Z,100589.47
2023-03-02T17:08:28.125Z,100588.47
2023-03-02T17:10:54.706Z,100588.47
2023-03-02T17:13:21.064Z,100590.03
2023-03-02T17:15:47.449Z,100589.00
2023-03-02T17:18:13.884Z,100587.84
2023-03-02T17:20:40.436Z,100596.38
2023-03-02T17:23:07.210Z,100591.03
2023-03-02T17:25:33.856Z,100598.38
2023-03-02T17:28:00.202Z,100597.88
2023-03-02T17:30:26.632Z,100603.53
2023-03-02T17:32:53.043Z,100596.53
2023-03-02T17:35:19.862Z,100600.69
2023-03-02T17:37:46.255Z,100615.38
2023-03-02T17:40:14.365Z,100606.50
2023-03-02T17:42:40.929Z,100609.81
2023-03-02T17:45:08.126Z,100613.31
2023-03-02T17:47:35.188Z,100624.00
2023-03-02T17:50:03.785Z,100626.31
2023-03-02T17:52:30.531Z,100628.47
2023-03-02T17:54:56.869Z,100626.31
2023-03-02T17:57:23.344Z,100627.44
2023-03-02T17:59:52.664Z,100631.28
2023-03-02T18:02:19.189Z,100633.97
2023-03-02T18:04:45.822Z,100632.97
2023-03-02T18:07:13.961Z,100643.28
2023-03-02T18:09:42.648Z,100649.44
2023-03-02T18:12:09.409Z,100653.41
2023-03-02T18:14:36.355Z,100651.44
2023-03-02T18:17:04.810Z,100651.38
2023-03-02T18:19:31.570Z,100657.22
2023-03-02T18:21:58.120Z,100655.31
2023-03-02T18:24:25.084Z,100656.91
2023-03-02T18:26:51.511Z,100661.19
2023-03-02T18:29:18.017Z,100665.69
2023-03-02T18:31:44.685Z,100668.78
2023-03-02T18:34:11.238Z,100663.28
2023-03-02T18:36:37.810Z,100661.84
2023-03-02T18:39:04.556Z,100670.44
2023-03-02T18:41:32.249Z,100664.38
2023-03-02T18:44:01.232Z,100671.41
2023-03-02T18:46:29.012Z,100675.59
2023-03-02T18:48:56.293Z,100676.13
2023-03-02T18:51:23.791Z,100678.31
2023-03-02T18:53:51.161Z,100676.50
2023-03-02T18:56:18.382Z,100675.69
2023-03-02T18:58:45.037Z,100681.53
2023-03-02T19:01:11.668Z,100678.28
2023-03-02T19:03:38.870Z,100688.72
2023-03-02T19:06:07.345Z,100687.03
2023-03-02T19:08:35.340Z,100695.31
2023-03-02T19:11:02.134Z,100692.75
2023-03-02T19:13:28.717Z,100689.53
2023-03-02T19:15:55.354Z,100694.94
2023-03-02T19:18:23.300Z,100692.56
2023-03-02T19:20:49.997Z,100695.34
2023-03-02T19:23:17.163Z,100702.66
2023-03-02T19:25:44.588Z,100701.63
2023-03-02T19:28:11.795Z,100701.78
2023-03-02T19:30:39.931Z,100700.78
2023-03-02T19:33:09.049Z,100705.28
2023-03-02T19:35:37.735Z,100711.56
2023-03-02T19:38:05.841Z,100717.66
2023-03-02T19:40:32.569Z,100710.06
2023-03-02T19:42:58.944Z,100708.38
2023-03-02T19:45:29.259Z,100715.84
2023-03-02T19:47:57.858Z,100704.03
2023-03-02T19:50:25.664Z,100709.03
2023-03-02T19:52:54.623Z,100712.50
2023-03-02T19:55:22.216Z,100719.94
2023-03-02T19:57:51.364Z,100709.97
2023-03-02T20:00:19.997Z,100725.19
2023-03-02T20:02:47.162Z,100715.56
2023-03-02T20:05:15.001Z,100719.53
2023-03-02T20:07:42.667Z,100715.75
2023-03-02T20:10:10.380Z,100723.94
2023-03-02T20:12:37.017Z,100724.78
2023-03-02T20:15:04.722Z,100729.06
2023-03-02T20:17:31.221Z,100730.44
2023-03-02T20:19:58.436Z,100727.09
2023-03-02T20:22:25.683Z,100734.22
2023-03-02T20:24:52.030Z,100728.78
2023-03-02T20:27:18.512Z,100727.00
2023-03-02T20:29:45.053Z,100729.00
2023-03-02T20:32:12.730Z,100726.16
2023-03-02T20:34:40.874Z,100735.56
2023-03-02T20:37:07.647Z,100744.16
2023-03-02T20:39:41.231Z,100732.44
2023-03-02T20:42:08.842Z,100739.25
2023-03-02T20:44:35.829Z,100733.50
2023-03-02T20:47:08.141Z,100735.78
2023-03-02T20:49:35.888Z,100734.69
2023-03-02T20:52:05.128Z,100730.53
2023-03-02T20:54:35.121Z,100732.06
2023-03-02T20:57:01.563Z,100730.53
2023-03-02T20:59:28.519Z,100736.28
2023-03-02T21:01:55.249Z,100736.25
2023-03-02T21:04:21.979Z,100734.34
2023-03-02T21:06:48.399Z,100744.75
2023-03-02T21:09:15.242Z,100752.31
2023-03-02T21:11:41.619Z,100758.56
2023-03-02T21:14:14.008Z,100743.53
2023-03-02T21:16:43.075Z,100748.63
2023-03-02T21:19:13.809Z,100756.13
2023-03-02T21:21:42.370Z,100747.66
2023-03-02T21:24:10.667Z,100750.06
2023-03-02T21:26:37.287Z,100748.78
2023-03-02T21:29:05.315Z,100746.31
2023-03-02T21:31:31.732Z,100757.03
2023-03-02T21:33:59.963Z,100754.63
2023-03-02T21:36:26.520Z,100755.75
2023-03-02T21:38:53.719Z,100754.75
2023-03-02T21:41:20.280Z,100752.34
2023-03-02T21:43:47.645Z,100746.81
2023-03-02T21:46:16.297Z,100760.03
2023-03-02T21:48:43.278Z,100755.63
2023-03-02T21:51:12.109Z,100759.72
2023-03-02T21:53:38.622Z,100744.59
2023-03-02T21:56:05.710Z,100755.03
2023-03-02T21:58:32.187Z,100763.84
2023-03-02T22:00:58.542Z,100765.28
2023-03-02T22:03:25.027Z,100766.66
2023-03-02T22:05:51.912Z,100760.19
2023-03-02T22:08:19.735Z,100757.88
2023-03-02T22:10:48.422Z,100753.16
2023-03-02T22:13:25.733Z,100753.47
2023-03-02T22:16:13.620Z,100755.34
2023-03-02T22:18:43.438Z,100759.47
2023-03-02T22:21:37.728Z,100752.41
2023-03-02T22:24:10.902Z,100756.06
2023-03-02T22:26:40.516Z,100753.19
2023-03-02T22:29:16.144Z,100750.09
2023-03-02T22:31:47.835Z,100753.81
2023-03-02T22:34:24.052Z,100757.94
2023-03-02T22:36:50.647Z,100758.78
2023-03-02T22:39:27.217Z,100767.22
2023-03-02T22:42:00.202Z,100759.97
2023-03-02T22:44:26.723Z,100760.22
2023-03-02T22:46:55.349Z,100759.38
2023-03-02T22:49:21.763Z,100765.13
2023-03-02T22:51:48.198Z,100762.34
2023-03-02T22:54:45.481Z,100757.94
2023-03-02T22:57:27.880Z,100763.91
2023-03-02T23:00:10.978Z,100764.00
2023-03-02T23:02:41.929Z,100759.81
2023-03-02T23:05:27.313Z,100753.00
2023-03-02T23:08:01.247Z,100757.28
2023-03-02T23:10:30.603Z,100759.53
2023-03-02T23:16:44.457Z,100763.97
2023-03-02T23:19:10.922Z,100757.34
2023-03-02T23:21:45.585Z,100766.13
2023-03-02T23:24:12.720Z,100760.03
2023-03-02T23:26:39.392Z,100762.38
2023-03-02T23:29:06.477Z,100765.25
2023-03-02T23:31:33.482Z,100764.66
2023-03-02T23:34:00.165Z,100761.34
2023-03-02T23:36:27.854Z,100763.03
2023-03-02T23:38:54.298Z,100764.84
2023-03-02T23:41:20.841Z,100762.47
2023-03-02T23:43:47.304Z,100765.66
2023-03-02T23:46:14.047Z,100764.25
2023-03-02T23:48:41.665Z,100760.94
2023-03-02T23:51:08.165Z,100763.88
2023-03-02T23:53:34.550Z,100762.53
2023-03-02T23:56:00.934Z,100759.25
2023-03-02T23:58:27.759Z,100759.19
